Time;durP1;ratioP1;P1;durP2;ratioP2;P2;SDS_P1;SDS_P2;PMS_P1;PMS_P2;Temp;Humidity;BMP_temperature;BMP_pressure;BME280_temperature;BME280_humidity;BME280_pressure;Samples;Min_cycle;Max_cycle;Signal;HPM_P1;HPM_P2
2023/12/17 00:01:24;;;;;;;16.63;8.23;;;10.10;99.90;;;;;;5046582;28;20037;-65
2023/12/17 00:03:50;;;;;;;13.00;7.35;;;10.10;99.90;;;;;;5049153;28;20342;-65
2023/12/17 00:06:16;;;;;;;15.35;8.18;;;10.10;99.90;;;;;;5035406;28;20486;-65
2023/12/17 00:08:42;;;;;;;22.10;8.15;;;10.10;99.90;;;;;;5049446;28;20033;-65
2023/12/17 00:11:08;;;;;;;15.52;7.38;;;10.10;99.90;;;;;;5031534;28;20364;-65
2023/12/17 00:13:35;;;;;;;11.30;7.35;;;10.10;99.90;;;;;;5043809;28;20515;-65
2023/12/17 00:16:01;;;;;;;11.40;7.38;;;10.10;99.90;;;;;;5033818;28;20049;-65
2023/12/17 00:18:27;;;;;;;12.27;6.35;;;10.10;99.90;;;;;;5049115;28;20462;-65
2023/12/17 00:20:52;;;;;;;8.67;7.17;;;10.10;99.90;;;;;;5047400;28;20036;-65
2023/12/17 00:23:18;;;;;;;12.67;7.07;;;10.10;99.90;;;;;;5048058;28;20744;-64
2023/12/17 00:25:43;;;;;;;8.93;6.80;;;10.20;99.90;;;;;;5049577;28;20037;-65
2023/12/17 00:28:09;;;;;;;10.77;6.17;;;10.10;99.90;;;;;;5049371;28;20128;-64
2023/12/17 00:30:35;;;;;;;11.38;7.15;;;10.20;99.90;;;;;;5048776;28;20315;-65
2023/12/17 00:33:00;;;;;;;9.97;7.20;;;10.20;99.90;;;;;;5048569;28;20037;-65
2023/12/17 00:35:26;;;;;;;11.10;7.23;;;10.20;99.90;;;;;;5048134;28;20995;-65
2023/12/17 00:37:51;;;;;;;14.07;8.63;;;10.20;99.90;;;;;;5048942;28;20037;-65
2023/12/17 00:40:17;;;;;;;11.90;6.70;;;10.20;99.90;;;;;;5048399;28;20283;-64
2023/12/17 00:42:44;;;;;;;12.43;7.13;;;10.20;99.90;;;;;;5049699;28;20124;-65
2023/12/17 00:45:09;;;;;;;11.43;7.50;;;10.20;99.90;;;;;;5048734;28;20111;-65
2023/12/17 00:47:35;;;;;;;11.27;6.50;;;10.20;99.90;;;;;;5048277;28;20128;-65
2023/12/17 00:50:01;;;;;;;12.20;7.40;;;10.20;99.90;;;;;;5049669;28;20041;-65
2023/12/17 00:52:26;;;;;;;13.05;7.13;;;10.20;99.90;;;;;;5047824;28;20111;-65
2023/12/17 00:54:52;;;;;;;12.43;7.75;;;10.20;99.90;;;;;;5048438;28;20507;-65
2023/12/17 00:57:18;;;;;;;11.40;7.07;;;10.20;99.90;;;;;;5047909;28;20068;-65
2023/12/17 00:59:44;;;;;;;11.07;6.95;;;10.20;99.90;;;;;;5048454;28;20275;-65
2023/12/17 01:02:09;;;;;;;10.48;7.72;;;10.20;99.90;;;;;;5047363;28;20032;-65
2023/12/17 01:04:35;;;;;;;14.48;7.07;;;10.20;99.90;;;;;;5049077;28;20419;-65
2023/12/17 01:07:00;;;;;;;10.15;7.22;;;10.10;99.90;;;;;;5048260;28;20044;-65
2023/12/17 01:09:26;;;;;;;9.52;7.70;;;10.20;99.90;;;;;;5048866;28;20028;-65
2023/12/17 01:11:52;;;;;;;11.13;8.20;;;10.20;99.90;;;;;;5048097;28;20045;-65
2023/12/17 01:14:17;;;;;;;17.97;7.97;;;10.10;99.90;;;;;;5046046;28;20102;-65
2023/12/17 01:16:43;;;;;;;11.15;7.57;;;10.10;99.90;;;;;;5048271;28;20286;-65
2023/12/17 01:19:09;;;;;;;14.13;7.90;;;10.20;99.90;;;;;;5048134;28;20055;-65
2023/12/17 01:21:34;;;;;;;10.90;8.60;;;10.10;99.90;;;;;;5029901;28;20382;-65
2023/12/17 01:24:01;;;;;;;11.93;8.30;;;10.20;99.90;;;;;;5048042;28;20072;-64
2023/12/17 01:26:27;;;;;;;10.82;7.95;;;10.20;99.90;;;;;;5047732;28;20029;-65
2023/12/17 01:28:53;;;;;;;14.53;8.47;;;10.20;99.90;;;;;;5049356;28;20089;-65
2023/12/17 01:31:18;;;;;;;13.13;9.32;;;10.20;99.90;;;;;;5029882;28;20279;-65
2023/12/17 01:33:45;;;;;;;13.30;8.30;;;10.20;99.90;;;;;;5048116;28;20495;-65
2023/12/17 01:36:10;;;;;;;12.32;8.23;;;10.20;99.90;;;;;;5048436;28;20037;-65
2023/12/17 01:38:36;;;;;;;12.77;8.13;;;10.20;99.90;;;;;;5048727;28;20049;-65
2023/12/17 01:41:02;;;;;;;11.25;7.57;;;10.20;99.90;;;;;;5030121;28;20057;-65
2023/12/17 01:43:28;;;;;;;17.55;8.30;;;10.20;99.90;;;;;;5046967;28;20045;-65
2023/12/17 01:45:54;;;;;;;15.30;8.23;;;10.20;99.90;;;;;;5048032;28;20107;-65
2023/12/17 01:48:24;;;;;;;12.57;8.50;;;10.20;99.90;;;;;;5047626;28;20032;-65
2023/12/17 01:50:50;;;;;;;15.88;8.68;;;10.20;99.90;;;;;;5047956;28;20041;-65
2023/12/17 01:53:17;;;;;;;11.88;8.25;;;10.20;99.90;;;;;;5048280;28;20453;-65
2023/12/17 01:55:44;;;;;;;14.50;8.10;;;10.20;99.90;;;;;;5047740;28;20040;-64
2023/12/17 01:58:11;;;;;;;11.73;7.45;;;10.20;99.90;;;;;;5046640;28;20443;-65
2023/12/17 02:00:37;;;;;;;;;;;10.20;99.90;;;;;;5048400;28;20040;-65
2023/12/17 02:03:05;;;;;;;14.10;8.68;;;10.20;99.90;;;;;;5048305;28;19960;-65
2023/12/17 02:05:35;;;;;;;12.85;8.18;;;10.20;99.90;;;;;;5047368;28;20037;-65
2023/12/17 02:08:02;;;;;;;11.98;7.97;;;10.20;99.90;;;;;;5045351;28;20063;-65
2023/12/17 02:10:27;;;;;;;11.82;7.63;;;10.20;99.90;;;;;;5047949;28;20037;-65
2023/12/17 02:12:53;;;;;;;9.32;8.15;;;10.20;99.90;;;;;;5030046;28;20064;-65
2023/12/17 02:15:19;;;;;;;11.63;8.45;;;10.20;99.90;;;;;;5029166;28;20037;-65
2023/12/17 02:17:45;;;;;;;13.18;8.93;;;10.20;99.90;;;;;;5029917;28;20036;-65
2023/12/17 02:20:11;;;;;;;13.82;8.85;;;10.20;99.90;;;;;;5047701;28;20041;-65
2023/12/17 02:22:38;;;;;;;13.05;9.35;;;10.20;99.90;;;;;;5049535;28;20041;-65
2023/12/17 02:25:07;;;;;;;14.85;8.65;;;10.20;99.90;;;;;;5054820;28;20128;-65
2023/12/17 02:27:32;;;;;;;11.77;8.52;;;10.20;99.90;;;;;;5050785;28;20123;-65
2023/12/17 02:29:58;;;;;;;10.60;7.03;;;10.20;99.90;;;;;;5050939;28;20116;-65
2023/12/17 02:32:24;;;;;;;18.63;7.67;;;10.20;99.90;;;;;;5015889;28;20579;-65
2023/12/17 02:34:50;;;;;;;14.75;7.43;;;10.20;99.90;;;;;;5040945;28;20295;-64
2023/12/17 02:37:17;;;;;;;11.68;7.65;;;10.20;99.90;;;;;;5050956;28;20065;-64
2023/12/17 02:39:43;;;;;;;10.18;7.65;;;10.20;99.90;;;;;;5051755;28;20037;-65
2023/12/17 02:42:09;;;;;;;12.20;8.52;;;10.20;99.90;;;;;;5050804;28;20029;-65
2023/12/17 02:44:35;;;;;;;14.25;7.47;;;10.20;99.90;;;;;;5031988;28;20071;-65
2023/12/17 02:47:00;;;;;;;12.93;7.30;;;10.20;99.90;;;;;;5051032;28;20119;-65
2023/12/17 02:49:27;;;;;;;11.07;7.00;;;10.20;99.90;;;;;;5032919;28;20029;-65
2023/12/17 02:51:53;;;;;;;12.85;7.07;;;10.20;99.90;;;;;;5040377;28;20311;-65
2023/12/17 02:54:19;;;;;;;10.10;7.75;;;10.20;99.90;;;;;;5050318;28;20087;-64
2023/12/17 02:56:45;;;;;;;22.48;7.55;;;10.20;99.90;;;;;;5048932;28;20036;-64
2023/12/17 02:59:12;;;;;;;9.77;7.07;;;10.20;99.90;;;;;;5031569;28;20095;-65
2023/12/17 03:01:42;;;;;;;15.90;8.20;;;10.20;99.90;;;;;;5051378;28;20041;-65
2023/12/17 03:04:08;;;;;;;15.50;7.95;;;10.20;99.90;;;;;;5051058;28;20044;-65
2023/12/17 03:06:35;;;;;;;16.23;8.10;;;10.20;99.90;;;;;;5050452;28;20037;-64
2023/12/17 03:09:01;;;;;;;10.35;6.68;;;10.20;99.90;;;;;;5049884;28;20032;-65
2023/12/17 03:11:27;;;;;;;13.45;7.57;;;10.20;99.90;;;;;;5049634;28;20039;-65
2023/12/17 03:13:52;;;;;;;12.23;7.57;;;10.20;99.90;;;;;;5050035;28;20033;-65
2023/12/17 03:16:18;;;;;;;18.43;8.47;;;10.20;99.90;;;;;;5049643;28;20049;-65
2023/12/17 03:18:43;;;;;;;9.75;8.10;;;10.20;99.90;;;;;;5047592;28;20039;-65
2023/12/17 03:21:11;;;;;;;13.40;7.97;;;10.20;99.90;;;;;;5049958;28;20533;-65
2023/12/17 03:23:37;;;;;;;15.90;7.28;;;10.20;99.90;;;;;;5046964;28;21184;-65
2023/12/17 03:26:03;;;;;;;15.67;7.77;;;10.20;99.90;;;;;;5050329;28;20021;-65
2023/12/17 03:28:29;;;;;;;;;;;10.20;99.90;;;;;;5050138;28;20049;-65
2023/12/17 03:30:55;;;;;;;11.15;8.20;;;10.20;99.90;;;;;;5033273;28;19916;-65
2023/12/17 03:33:21;;;;;;;13.98;6.95;;;10.20;99.90;;;;;;5049524;28;20044;-65
2023/12/17 03:35:46;;;;;;;11.48;7.57;;;10.20;99.90;;;;;;5050000;28;20048;-65
2023/12/17 03:38:13;;;;;;;12.80;8.38;;;10.20;99.90;;;;;;5031696;28;20120;-65
2023/12/17 03:40:38;;;;;;;12.27;8.10;;;10.20;99.90;;;;;;5049298;28;20037;-65
2023/12/17 03:43:04;;;;;;;12.37;7.87;;;10.20;99.90;;;;;;5049740;28;20519;-64
2023/12/17 03:45:31;;;;;;;9.93;8.18;;;10.20;99.90;;;;;;5048773;28;20033;-64
2023/12/17 03:47:57;;;;;;;8.27;7.47;;;10.20;99.90;;;;;;5049752;28;20484;-65
2023/12/17 03:50:23;;;;;;;11.07;8.88;;;10.20;99.90;;;;;;5049874;28;20040;-64
2023/12/17 03:52:49;;;;;;;11.30;7.78;;;10.20;99.90;;;;;;5031525;28;20040;-65
2023/12/17 03:55:15;;;;;;;10.43;8.93;;;10.20;99.90;;;;;;5049505;28;20047;-64
2023/12/17 03:57:41;;;;;;;10.57;8.38;;;10.20;99.90;;;;;;5049693;28;20033;-64
2023/12/17 04:00:07;;;;;;;13.80;8.23;;;10.10;99.90;;;;;;5032346;28;20056;-65
2023/12/17 04:02:33;;;;;;;;;;;10.20;99.90;;;;;;5045733;28;20045;-65
2023/12/17 04:04:59;;;;;;;16.45;7.45;;;10.20;99.90;;;;;;5049486;28;19923;-64
2023/12/17 04:07:29;;;;;;;13.98;8.82;;;10.20;99.90;;;;;;5048648;28;20427;-65
2023/12/17 04:09:59;;;;;;;13.18;8.90;;;10.10;99.90;;;;;;5032669;28;20062;-65
2023/12/17 04:12:25;;;;;;;15.00;8.73;;;10.10;99.90;;;;;;5045047;28;20045;-65
2023/12/17 04:14:51;;;;;;;20.77;11.23;;;10.10;99.90;;;;;;5049069;28;20037;-65
2023/12/17 04:17:16;;;;;;;15.10;9.63;;;10.10;99.90;;;;;;5031338;28;20288;-65
2023/12/17 04:19:42;;;;;;;10.88;8.85;;;10.10;99.90;;;;;;5050027;28;20048;-65
2023/12/17 04:22:07;;;;;;;14.73;9.20;;;10.10;99.90;;;;;;5031525;28;20037;-65
2023/12/17 04:24:33;;;;;;;13.77;9.93;;;10.10;99.90;;;;;;5030407;28;20451;-65
2023/12/17 04:26:59;;;;;;;18.02;9.98;;;10.10;99.90;;;;;;5014785;28;20045;-65
2023/12/17 04:29:24;;;;;;;11.10;9.73;;;10.10;99.90;;;;;;5048624;28;20029;-65
2023/12/17 04:31:50;;;;;;;12.03;8.37;;;10.10;99.90;;;;;;5031656;28;20063;-65
2023/12/17 04:34:16;;;;;;;17.20;9.38;;;10.10;99.90;;;;;;5048431;28;20416;-65
2023/12/17 04:36:42;;;;;;;14.02;9.48;;;10.10;99.90;;;;;;5048307;28;20447;-65
2023/12/17 04:39:09;;;;;;;;;;;10.10;99.90;;;;;;5031532;28;20117;-65
2023/12/17 04:41:39;;;;;;;15.18;9.77;;;10.10;99.90;;;;;;5030485;28;19925;-65
2023/12/17 04:44:05;;;;;;;12.25;9.65;;;10.10;99.90;;;;;;5047649;28;20029;-65
2023/12/17 04:46:30;;;;;;;14.38;8.98;;;10.00;99.90;;;;;;5048604;28;20029;-65
2023/12/17 04:48:56;;;;;;;11.52;10.32;;;10.10;99.90;;;;;;5048116;28;20116;-64
2023/12/17 04:51:22;;;;;;;13.30;9.90;;;10.00;99.90;;;;;;5051414;28;20032;-65
2023/12/17 04:53:49;;;;;;;13.45;10.07;;;10.00;99.90;;;;;;5035539;28;20053;-65
2023/12/17 04:56:15;;;;;;;17.23;9.05;;;10.10;99.90;;;;;;5032245;28;20049;-65
2023/12/17 04:58:41;;;;;;;;;;;10.00;99.90;;;;;;5048358;28;20426;-65
2023/12/17 05:01:06;;;;;;;9.90;8.98;;;10.00;99.90;;;;;;5047616;28;20070;-65
2023/12/17 05:03:32;;;;;;;10.80;8.70;;;10.00;99.90;;;;;;5050859;28;20496;-65
2023/12/17 05:05:58;;;;;;;12.27;8.90;;;10.00;99.90;;;;;;5050603;28;20063;-65
2023/12/17 05:08:23;;;;;;;10.88;9.10;;;10.00;99.90;;;;;;5030582;28;20370;-65
2023/12/17 05:10:49;;;;;;;17.23;10.18;;;10.00;99.90;;;;;;5048851;28;20033;-64
2023/12/17 05:13:15;;;;;;;10.25;8.55;;;10.00;99.90;;;;;;5045602;28;20324;-64
2023/12/17 05:15:41;;;;;;;12.90;7.43;;;10.00;99.90;;;;;;5049583;28;20079;-65
2023/12/17 05:18:06;;;;;;;11.93;10.45;;;10.00;99.90;;;;;;5040783;28;20515;-65
2023/12/17 05:20:32;;;;;;;10.35;7.90;;;10.00;99.90;;;;;;5031415;28;20056;-65
2023/12/17 05:22:57;;;;;;;11.10;7.67;;;10.00;99.90;;;;;;5047679;28;20083;-65
2023/12/17 05:25:23;;;;;;;14.27;8.00;;;10.00;99.90;;;;;;5047630;28;20040;-65
2023/12/17 05:27:49;;;;;;;9.57;6.90;;;10.00;99.90;;;;;;5030322;28;20060;-65
2023/12/17 05:30:14;;;;;;;12.40;7.75;;;10.00;99.90;;;;;;5047868;28;20071;-64
2023/12/17 05:32:40;;;;;;;10.07;7.43;;;10.00;99.90;;;;;;5047234;28;20063;-64
2023/12/17 05:35:06;;;;;;;9.90;8.27;;;10.00;99.90;;;;;;5030633;28;20102;-65
2023/12/17 05:37:32;;;;;;;13.57;7.68;;;10.00;99.90;;;;;;5048922;28;20083;-65
2023/12/17 05:39:58;;;;;;;8.93;7.07;;;10.00;99.90;;;;;;5048729;28;20694;-64
2023/12/17 05:42:23;;;;;;;9.13;7.65;;;10.00;99.90;;;;;;5014482;28;20069;-65
2023/12/17 05:44:49;;;;;;;10.20;7.73;;;9.90;99.90;;;;;;5048134;28;20436;-64
2023/12/17 05:47:15;;;;;;;;;;;10.00;99.90;;;;;;5013724;28;20041;-65
2023/12/17 05:49:41;;;;;;;7.60;6.85;;;9.90;99.90;;;;;;5047752;28;19986;-64
2023/12/17 05:52:08;;;;;;;8.20;6.60;;;9.90;99.90;;;;;;5048382;28;20120;-65
2023/12/17 05:54:33;;;;;;;9.45;6.68;;;9.90;99.90;;;;;;5047275;28;20499;-65
2023/12/17 05:57:00;;;;;;;8.93;6.63;;;9.90;99.90;;;;;;5034440;28;20087;-65
2023/12/17 05:59:25;;;;;;;;;;;9.90;99.90;;;;;;5051854;28;20052;-65
2023/12/17 06:01:51;;;;;;;7.72;6.95;;;9.90;99.90;;;;;;5050121;28;19917;-64
2023/12/17 06:04:16;;;;;;;9.10;7.60;;;9.90;99.90;;;;;;5034947;28;20102;-65
2023/12/17 06:06:42;;;;;;;7.50;6.80;;;9.90;99.90;;;;;;5052246;28;20035;-65
2023/12/17 06:09:08;;;;;;;12.45;7.30;;;9.90;99.90;;;;;;5051708;28;20123;-64
2023/12/17 06:11:33;;;;;;;9.68;7.47;;;9.90;99.90;;;;;;5032993;28;20538;-64
2023/12/17 06:13:59;;;;;;;10.70;6.63;;;9.90;99.90;;;;;;5052971;28;20491;-64
2023/12/17 06:16:25;;;;;;;9.27;6.30;;;9.90;99.90;;;;;;5051285;28;20482;-64
2023/12/17 06:18:52;;;;;;;9.98;6.90;;;9.80;99.90;;;;;;5053613;28;20433;-64
2023/12/17 06:21:25;;;;;;;7.85;7.00;;;9.80;99.90;;;;;;5050987;28;20047;-64
2023/12/17 06:23:57;;;;;;;8.43;7.13;;;9.80;99.90;;;;;;5051038;28;20174;-64
2023/12/17 06:26:23;;;;;;;12.77;7.88;;;9.90;99.90;;;;;;5049524;28;20493;-65
2023/12/17 06:28:49;;;;;;;9.40;7.07;;;9.80;99.90;;;;;;5019243;28;20052;-65
2023/12/17 06:31:15;;;;;;;15.68;7.00;;;9.80;99.90;;;;;;5053601;28;20037;-64
2023/12/17 06:33:41;;;;;;;9.88;7.25;;;9.80;99.90;;;;;;5054625;28;20033;-64
2023/12/17 06:36:07;;;;;;;13.77;7.25;;;9.80;99.90;;;;;;5051795;28;20123;-64
2023/12/17 06:38:33;;;;;;;9.25;7.05;;;9.80;99.90;;;;;;5052724;28;20065;-64
2023/12/17 06:40:58;;;;;;;11.43;7.60;;;9.80;99.90;;;;;;5050740;28;20032;-65
2023/12/17 06:43:24;;;;;;;9.73;7.77;;;9.70;99.90;;;;;;5050615;28;20079;-65
2023/12/17 06:45:50;;;;;;;11.45;8.02;;;9.70;99.90;;;;;;5051016;28;20277;-65
2023/12/17 06:48:16;;;;;;;9.15;8.40;;;9.80;99.90;;;;;;5051129;28;20037;-65
2023/12/17 06:50:41;;;;;;;9.40;8.57;;;9.80;99.90;;;;;;5051091;28;20041;-65
2023/12/17 06:53:07;;;;;;;15.20;9.33;;;9.80;99.90;;;;;;5053180;28;20039;-65
2023/12/17 06:55:32;;;;;;;11.00;8.00;;;9.80;99.90;;;;;;5015672;28;20709;-65
2023/12/17 06:57:58;;;;;;;12.80;9.07;;;9.70;99.90;;;;;;5051618;28;20412;-64
2023/12/17 07:00:24;;;;;;;15.07;9.03;;;9.70;99.90;;;;;;5050652;28;20078;-65
2023/12/17 07:02:50;;;;;;;18.37;9.33;;;9.70;99.90;;;;;;5051523;28;20116;-65
2023/12/17 07:05:16;;;;;;;17.80;10.90;;;9.70;99.90;;;;;;5047383;28;20111;-64
2023/12/17 07:07:47;;;;;;;11.98;10.20;;;9.70;99.90;;;;;;5048876;28;20113;-65
2023/12/17 07:10:12;;;;;;;16.70;11.10;;;9.70;99.90;;;;;;5047536;28;20044;-64
2023/12/17 07:12:38;;;;;;;14.15;11.35;;;9.70;99.90;;;;;;5044494;28;20043;-64
2023/12/17 07:15:04;;;;;;;13.33;10.33;;;9.70;99.90;;;;;;5051221;28;20047;-64
2023/12/17 07:17:30;;;;;;;17.35;11.52;;;9.70;99.90;;;;;;5050037;28;20268;-64
2023/12/17 07:19:55;;;;;;;13.07;10.27;;;9.70;99.90;;;;;;5050033;28;20060;-64
2023/12/17 07:22:22;;;;;;;12.50;10.27;;;9.70;99.90;;;;;;5046770;28;20290;-65
2023/12/17 07:24:49;;;;;;;;;;;9.70;99.90;;;;;;5050551;28;20681;-65
2023/12/17 07:27:14;;;;;;;15.63;9.45;;;9.60;99.90;;;;;;5050358;28;20011;-65
2023/12/17 07:29:40;;;;;;;15.45;9.45;;;9.60;99.90;;;;;;5049863;28;20455;-65
2023/12/17 07:32:06;;;;;;;14.23;8.47;;;9.60;99.90;;;;;;5050158;28;20032;-65
2023/12/17 07:34:32;;;;;;;15.25;8.20;;;9.60;99.90;;;;;;5050098;28;20068;-65
2023/12/17 07:36:57;;;;;;;9.43;6.63;;;9.60;99.90;;;;;;5049958;28;20037;-65
2023/12/17 07:39:23;;;;;;;12.30;7.63;;;9.60;99.90;;;;;;5049857;28;20044;-65
2023/12/17 07:41:48;;;;;;;14.07;7.17;;;9.60;99.90;;;;;;5031595;28;20295;-65
2023/12/17 07:44:14;;;;;;;11.53;7.20;;;9.60;99.90;;;;;;5049021;28;20073;-65
2023/12/17 07:46:40;;;;;;;14.23;6.30;;;9.60;99.90;;;;;;5046697;28;20033;-65
2023/12/17 07:49:05;;;;;;;13.18;7.38;;;9.60;99.90;;;;;;5049199;28;20029;-65
2023/12/17 07:51:31;;;;;;;18.47;9.00;;;9.60;99.90;;;;;;5049072;28;20116;-65
2023/12/17 07:53:57;;;;;;;14.13;7.80;;;9.60;99.90;;;;;;5046868;28;20500;-65
2023/12/17 07:56:23;;;;;;;16.67;7.55;;;9.50;99.90;;;;;;5011515;28;20098;-65
2023/12/17 07:58:49;;;;;;;11.20;6.72;;;9.50;99.90;;;;;;5043609;28;20514;-65
2023/12/17 08:01:14;;;;;;;9.70;6.83;;;9.50;99.90;;;;;;5045357;28;20041;-65
2023/12/17 08:03:40;;;;;;;10.23;5.90;;;9.50;99.90;;;;;;5043868;28;20304;-65
2023/12/17 08:06:06;;;;;;;11.37;6.33;;;9.50;99.90;;;;;;5046313;28;20052;-65
2023/12/17 08:08:31;;;;;;;12.23;6.65;;;9.50;99.90;;;;;;5049450;28;20101;-65
2023/12/17 08:10:57;;;;;;;12.30;6.07;;;9.50;99.90;;;;;;5046363;28;20385;-65
2023/12/17 08:13:22;;;;;;;9.83;6.73;;;9.50;99.90;;;;;;5042982;28;20044;-65
2023/12/17 08:15:48;;;;;;;7.67;5.90;;;9.50;99.90;;;;;;5009401;28;20113;-64
2023/12/17 08:18:15;;;;;;;9.00;5.53;;;9.50;99.90;;;;;;5044335;28;20325;-63
2023/12/17 08:20:41;;;;;;;9.73;5.93;;;9.50;99.90;;;;;;5050168;28;20037;-64
2023/12/17 08:23:07;;;;;;;10.67;5.90;;;9.50;99.90;;;;;;5053238;28;20033;-63
2023/12/17 08:25:38;;;;;;;8.63;5.45;;;9.50;99.90;;;;;;5049388;28;20041;-63
2023/12/17 08:28:05;;;;;;;12.23;6.15;;;9.50;99.90;;;;;;5047389;28;20411;-64
2023/12/17 08:30:30;;;;;;;14.07;5.93;;;9.50;99.90;;;;;;5047183;28;20041;-63
2023/12/17 08:32:56;;;;;;;9.33;5.73;;;9.50;99.90;;;;;;5041805;28;20044;-64
2023/12/17 08:35:22;;;;;;;10.03;6.33;;;9.50;99.90;;;;;;5038033;28;20029;-64
2023/12/17 08:37:48;;;;;;;11.10;6.85;;;9.50;99.90;;;;;;5022082;28;20160;-63
2023/12/17 08:40:14;;;;;;;8.32;6.13;;;9.50;99.90;;;;;;5039544;28;20132;-64
2023/12/17 08:42:40;;;;;;;11.10;7.18;;;9.50;99.90;;;;;;5037751;28;20041;-64
2023/12/17 08:45:06;;;;;;;12.93;8.15;;;9.50;99.90;;;;;;5044693;28;20056;-65
2023/12/17 08:47:32;;;;;;;12.70;7.18;;;9.50;99.90;;;;;;5026668;28;20043;-65
2023/12/17 08:49:59;;;;;;;14.27;7.33;;;9.50;99.90;;;;;;5027047;28;20377;-65
2023/12/17 08:52:26;;;;;;;13.90;8.75;;;9.60;99.90;;;;;;5039823;28;20094;-65
2023/12/17 08:54:52;;;;;;;14.88;7.50;;;9.60;99.90;;;;;;5038989;28;20044;-64
2023/12/17 08:57:17;;;;;;;15.90;9.10;;;9.60;99.90;;;;;;5047505;28;20036;-64
2023/12/17 08:59:44;;;;;;;16.47;8.60;;;9.50;99.90;;;;;;5048084;28;20472;-64
2023/12/17 09:02:09;;;;;;;16.13;10.32;;;9.60;99.90;;;;;;5049591;28;20043;-63
2023/12/17 09:04:35;;;;;;;21.02;12.88;;;9.60;99.90;;;;;;5026956;28;20037;-65
2023/12/17 09:07:00;;;;;;;17.77;12.23;;;9.60;99.90;;;;;;5044749;28;20460;-64
2023/12/17 09:09:26;;;;;;;21.00;13.13;;;9.60;99.90;;;;;;5042601;28;20111;-64
2023/12/17 09:11:52;;;;;;;21.87;14.37;;;9.60;99.90;;;;;;5038211;28;20104;-64
2023/12/17 09:14:18;;;;;;;24.23;14.00;;;9.60;99.90;;;;;;5047985;28;20066;-64
2023/12/17 09:16:43;;;;;;;28.63;16.13;;;9.60;99.90;;;;;;5044505;28;20750;-63
2023/12/17 09:19:09;;;;;;;24.37;16.17;;;9.60;99.90;;;;;;5048339;28;20195;-64
2023/12/17 09:21:35;;;;;;;28.80;15.93;;;9.60;99.90;;;;;;5041853;28;20370;-63
2023/12/17 09:24:00;;;;;;;29.97;18.60;;;9.60;99.90;;;;;;5045098;28;20045;-63
2023/12/17 09:26:26;;;;;;;26.07;16.63;;;9.60;99.90;;;;;;5043657;28;20299;-62
2023/12/17 09:28:51;;;;;;;24.47;17.70;;;9.60;99.90;;;;;;5040118;28;20496;-63
2023/12/17 09:31:17;;;;;;;31.97;18.60;;;9.60;99.90;;;;;;5044472;28;20992;-63
2023/12/17 09:33:42;;;;;;;30.97;20.13;;;9.60;99.90;;;;;;5041283;28;20033;-63
2023/12/17 09:36:08;;;;;;;32.63;19.60;;;9.60;99.90;;;;;;5047474;28;20040;-63
2023/12/17 09:38:34;;;;;;;33.70;20.80;;;9.60;99.90;;;;;;5043793;28;20676;-63
2023/12/17 09:41:00;;;;;;;30.60;20.88;;;9.60;99.90;;;;;;5046682;28;20049;-63
2023/12/17 09:43:26;;;;;;;30.65;20.58;;;9.60;99.90;;;;;;5041153;28;20408;-64
2023/12/17 09:45:52;;;;;;;41.57;22.10;;;9.60;99.90;;;;;;5042154;28;20036;-62
2023/12/17 09:48:18;;;;;;;37.40;23.23;;;9.60;99.90;;;;;;5042972;28;20280;-64
2023/12/17 09:50:44;;;;;;;32.70;21.48;;;9.60;99.90;;;;;;5044760;28;20033;-64
2023/12/17 09:53:10;;;;;;;32.65;21.13;;;9.60;99.90;;;;;;5047289;28;20063;-64
2023/12/17 09:55:37;;;;;;;35.23;21.43;;;9.60;99.90;;;;;;5046060;28;20362;-64
2023/12/17 09:58:06;;;;;;;32.00;20.40;;;9.60;99.90;;;;;;5044171;28;20614;-64
2023/12/17 10:00:32;;;;;;;32.25;20.23;;;9.60;99.90;;;;;;5046822;28;20037;-63
2023/12/17 10:03:05;;;;;;;30.92;18.85;;;9.60;99.90;;;;;;5039677;28;20063;-63
2023/12/17 10:05:31;;;;;;;29.88;18.77;;;9.60;99.90;;;;;;5043728;28;20033;-63
2023/12/17 10:07:58;;;;;;;27.63;17.80;;;9.60;99.90;;;;;;5043839;28;20029;-63
2023/12/17 10:10:24;;;;;;;29.13;18.90;;;9.60;99.90;;;;;;5047300;28;20221;-63
2023/12/17 10:12:50;;;;;;;26.00;16.93;;;9.60;99.90;;;;;;5046610;28;20151;-63
2023/12/17 10:15:17;;;;;;;29.30;18.65;;;9.60;99.90;;;;;;5047740;28;20068;-63
2023/12/17 10:17:43;;;;;;;24.05;16.80;;;9.60;99.90;;;;;;5045502;28;20037;-63
2023/12/17 10:20:09;;;;;;;23.80;16.60;;;9.60;99.90;;;;;;5047869;28;20036;-63
2023/12/17 10:22:35;;;;;;;22.33;14.95;;;9.60;99.90;;;;;;5046587;28;20028;-63
2023/12/17 10:25:00;;;;;;;20.87;14.83;;;9.60;99.90;;;;;;5045866;28;20515;-63
2023/12/17 10:27:27;;;;;;;26.20;14.57;;;9.60;99.90;;;;;;5046420;28;20056;-63
2023/12/17 10:29:53;;;;;;;19.52;14.32;;;9.60;99.90;;;;;;5031440;28;20041;-63
2023/12/17 10:32:23;;;;;;;17.52;12.93;;;9.60;99.90;;;;;;5044632;28;20073;-63
2023/12/17 10:34:50;;;;;;;19.33;13.48;;;9.60;99.90;;;;;;5044705;28;20488;-62
2023/12/17 10:37:19;;;;;;;19.40;13.63;;;9.60;99.90;;;;;;5028681;28;20037;-63
2023/12/17 10:39:54;;;;;;;23.20;13.20;;;9.60;99.90;;;;;;5045350;28;20530;-63
2023/12/17 10:42:20;;;;;;;16.50;12.13;;;9.60;99.90;;;;;;5012490;28;20087;-63
2023/12/17 10:44:49;;;;;;;18.38;12.60;;;9.50;99.90;;;;;;5048186;28;20567;-63
2023/12/17 10:47:20;;;;;;;19.90;13.20;;;9.60;99.90;;;;;;5035020;28;20048;-63
2023/12/17 10:49:46;;;;;;;20.60;13.02;;;9.50;99.90;;;;;;5033092;28;20112;-66
2023/12/17 10:52:12;;;;;;;21.55;13.85;;;9.60;99.90;;;;;;5050017;28;20388;-63
2023/12/17 10:54:39;;;;;;;26.13;15.40;;;9.60;99.90;;;;;;5033801;28;20071;-62
2023/12/17 10:57:15;;;;;;;24.58;15.07;;;9.60;99.90;;;;;;5033327;28;20095;-63
2023/12/17 10:59:44;;;;;;;26.17;16.02;;;9.60;99.90;;;;;;5050574;28;20048;-63
2023/12/17 11:02:13;;;;;;;24.23;15.23;;;9.60;99.90;;;;;;5050968;28;20051;-63
2023/12/17 11:04:45;;;;;;;23.70;14.98;;;9.60;99.90;;;;;;5050351;28;20048;-63
2023/12/17 11:07:17;;;;;;;24.08;15.60;;;9.60;99.90;;;;;;5048437;28;20515;-63
2023/12/17 11:09:44;;;;;;;23.52;15.18;;;9.60;99.90;;;;;;5048286;28;20037;-62
2023/12/17 11:12:11;;;;;;;22.30;15.57;;;9.60;99.90;;;;;;5050683;28;20055;-63
2023/12/17 11:14:38;;;;;;;27.95;16.23;;;9.60;99.90;;;;;;5050438;28;20125;-63
2023/12/17 11:17:10;;;;;;;24.88;16.83;;;9.60;99.90;;;;;;5050143;28;20504;-63
2023/12/17 11:19:52;;;;;;;25.25;16.70;;;9.60;99.90;;;;;;5031876;28;20122;-63
2023/12/17 11:22:17;;;;;;;31.42;18.52;;;9.60;99.90;;;;;;5050235;28;20041;-63
2023/12/17 11:24:43;;;;;;;29.00;18.02;;;9.60;99.90;;;;;;5050207;28;20508;-64
2023/12/17 11:27:10;;;;;;;30.07;18.83;;;9.60;99.90;;;;;;5050193;28;20029;-64
2023/12/17 11:29:38;;;;;;;30.10;18.85;;;9.60;99.90;;;;;;5050037;28;20488;-64
2023/12/17 11:32:08;;;;;;;27.63;17.73;;;9.70;99.90;;;;;;5028015;28;20574;-63
2023/12/17 11:34:36;;;;;;;35.60;19.50;;;9.60;99.90;;;;;;5026931;28;20495;-65
2023/12/17 11:37:03;;;;;;;32.08;19.10;;;9.70;99.90;;;;;;5040850;28;20047;-63
2023/12/17 11:39:31;;;;;;;;;;;9.70;99.90;;;;;;5049122;28;20056;-64
2023/12/17 11:41:57;;;;;;;31.48;19.95;;;9.70;99.90;;;;;;5047179;28;20945;-66
2023/12/17 11:44:23;;;;;;;31.70;19.43;;;9.70;99.90;;;;;;5046826;28;20047;-64
2023/12/17 11:46:49;;;;;;;34.45;20.75;;;9.70;99.90;;;;;;5030884;28;20080;-65
2023/12/17 11:49:22;;;;;;;;;;;9.70;99.90;;;;;;5049799;28;20044;-65
2023/12/17 11:51:48;;;;;;;36.55;21.88;;;9.70;99.90;;;;;;5042872;28;19917;-65
2023/12/17 11:54:18;;;;;;;36.97;21.57;;;9.60;99.90;;;;;;5028690;28;20484;-65
2023/12/17 11:56:43;;;;;;;35.85;22.13;;;9.60;99.90;;;;;;5050124;28;20786;-65
2023/12/17 11:59:09;;;;;;;31.43;20.83;;;9.60;99.90;;;;;;5020654;28;20134;-65
2023/12/17 12:01:35;;;;;;;37.43;21.13;;;9.60;99.90;;;;;;5050133;28;20068;-65
2023/12/17 12:04:00;;;;;;;34.53;22.08;;;9.60;99.90;;;;;;5049791;28;20041;-65
2023/12/17 12:06:26;;;;;;;34.93;20.73;;;9.60;99.90;;;;;;5048034;28;20025;-65
2023/12/17 12:08:52;;;;;;;38.10;20.75;;;9.60;99.90;;;;;;5037938;28;20280;-65
2023/12/17 12:11:19;;;;;;;28.63;19.80;;;9.50;99.90;;;;;;5046787;28;20039;-65
2023/12/17 12:13:48;;;;;;;29.38;18.98;;;9.50;99.90;;;;;;5032735;28;20041;-65
2023/12/17 12:16:15;;;;;;;30.42;18.42;;;9.60;99.90;;;;;;5047570;28;20094;-65
2023/12/17 12:18:41;;;;;;;29.65;19.48;;;9.50;99.90;;;;;;5043167;28;20071;-65
2023/12/17 12:21:21;;;;;;;29.17;19.38;;;9.60;99.90;;;;;;5038333;28;20041;-65
2023/12/17 12:23:54;;;;;;;33.50;20.60;;;9.60;99.90;;;;;;5048178;28;20033;-65
2023/12/17 12:26:22;;;;;;;33.83;20.75;;;9.60;99.90;;;;;;5045344;28;20509;-64
2023/12/17 12:28:58;;;;;;;32.30;20.15;;;9.60;99.90;;;;;;5048647;28;20033;-65
2023/12/17 12:31:29;;;;;;;35.15;19.67;;;9.60;99.90;;;;;;5046887;28;20033;-65
2023/12/17 12:33:59;;;;;;;33.53;20.83;;;9.60;99.90;;;;;;5039374;28;20036;-65
2023/12/17 12:36:46;;;;;;;29.60;18.58;;;9.60;99.90;;;;;;5043308;28;20045;-65
2023/12/17 12:39:13;;;;;;;32.42;19.95;;;9.60;99.90;;;;;;5043997;28;20033;-65